sensor_id;sensor_type;location;lat;lon;timestamp;temperature;humidity
23721;DHT22;42950;52.134;5.578;2023-05-07T00:00:46;15.50;99.90
23721;DHT22;42950;52.134;5.578;2023-05-07T00:03:12;15.50;99.90
23721;DHT22;42950;52.134;5.578;2023-05-07T00:05:39;15.50;99.90
23721;DHT22;42950;52.134;5.578;2023-05-07T00:08:05;15.60;99.90
23721;DHT22;42950;52.134;5.578;2023-05-07T00:10:30;15.50;99.90
23721;DHT22;42950;52.134;5.578;2023-05-07T00:12:58;15.50;99.90
23721;DHT22;42950;52.134;5.578;2023-05-07T00:15:24;15.50;99.90
23721;DHT22;42950;52.134;5.578;2023-05-07T00:17:49;15.50;99.90
23721;DHT22;42950;52.134;5.578;2023-05-07T00:20:15;15.50;99.90
23721;DHT22;42950;52.134;5.578;2023-05-07T00:22:45;15.50;99.90
23721;DHT22;42950;52.134;5.578;2023-05-07T00:25:11;15.50;99.90
23721;DHT22;42950;52.134;5.578;2023-05-07T00:27:36;15.50;99.90
23721;DHT22;42950;52.134;5.578;2023-05-07T00:30:02;15.50;99.90
23721;DHT22;42950;52.134;5.578;2023-05-07T00:32:28;15.50;99.90
23721;DHT22;42950;52.134;5.578;2023-05-07T00:34:53;15.50;99.90
23721;DHT22;42950;52.134;5.578;2023-05-07T00:37:19;15.50;99.90
23721;DHT22;42950;52.134;5.578;2023-05-07T00:39:45;15.50;99.90
23721;DHT22;42950;52.134;5.578;2023-05-07T00:42:11;15.40;99.90
23721;DHT22;42950;52.134;5.578;2023-05-07T00:44:36;15.40;99.90
23721;DHT22;42950;52.134;5.578;2023-05-07T00:47:03;15.40;99.90
23721;DHT22;42950;52.134;5.578;2023-05-07T00:49:39;15.40;99.90
23721;DHT22;42950;52.134;5.578;2023-05-07T00:52:07;15.30;99.90
23721;DHT22;42950;52.134;5.578;2023-05-07T00:54:35;15.30;99.90
23721;DHT22;42950;52.134;5.578;2023-05-07T00:57:02;15.30;99.90
23721;DHT22;42950;52.134;5.578;2023-05-07T00:59:29;15.30;99.90
23721;DHT22;42950;52.134;5.578;2023-05-07T01:01:55;15.30;99.90
23721;DHT22;42950;52.134;5.578;2023-05-07T01:04:21;15.20;99.90
23721;DHT22;42950;52.134;5.578;2023-05-07T01:06:47;15.20;99.90
23721;DHT22;42950;52.134;5.578;2023-05-07T01:09:12;15.20;99.90
23721;DHT22;42950;52.134;5.578;2023-05-07T01:11:39;15.10;99.90
23721;DHT22;42950;52.134;5.578;2023-05-07T01:14:05;15.10;99.90
23721;DHT22;42950;52.134;5.578;2023-05-07T01:16:32;15.10;99.90
23721;DHT22;42950;52.134;5.578;2023-05-07T01:18:58;15.20;99.90
23721;DHT22;42950;52.134;5.578;2023-05-07T01:21:26;15.20;99.90
23721;DHT22;42950;52.134;5.578;2023-05-07T01:23:52;15.10;99.90
23721;DHT22;42950;52.134;5.578;2023-05-07T01:26:19;15.10;99.90
23721;DHT22;42950;52.134;5.578;2023-05-07T01:28:46;15.10;99.90
23721;DHT22;42950;52.134;5.578;2023-05-07T01:31:12;15.10;99.90
23721;DHT22;42950;52.134;5.578;2023-05-07T01:33:40;15.20;99.90
23721;DHT22;42950;52.134;5.578;2023-05-07T01:36:08;15.20;99.90
23721;DHT22;42950;52.134;5.578;2023-05-07T01:38:36;15.20;99.90
23721;DHT22;42950;52.134;5.578;2023-05-07T01:41:02;15.10;99.90
23721;DHT22;42950;52.134;5.578;2023-05-07T01:43:34;15.10;99.90
23721;DHT22;42950;52.134;5.578;2023-05-07T01:46:01;15.10;99.90
23721;DHT22;42950;52.134;5.578;2023-05-07T01:48:28;15.10;99.90
23721;DHT22;42950;52.134;5.578;2023-05-07T01:50:55;15.10;99.90
23721;DHT22;42950;52.134;5.578;2023-05-07T01:53:22;15.10;99.90
23721;DHT22;42950;52.134;5.578;2023-05-07T01:55:47;15.10;99.90
23721;DHT22;42950;52.134;5.578;2023-05-07T01:58:13;15.10;99.90
23721;DHT22;42950;52.134;5.578;2023-05-07T02:00:39;15.10;99.90
23721;DHT22;42950;52.134;5.578;2023-05-07T02:03:06;15.10;99.90
23721;DHT22;42950;52.134;5.578;2023-05-07T02:05:32;15.10;99.90
23721;DHT22;42950;52.134;5.578;2023-05-07T02:07:58;15.10;99.90
23721;DHT22;42950;52.134;5.578;2023-05-07T02:10:23;15.10;99.90
23721;DHT22;42950;52.134;5.578;2023-05-07T02:12:49;15.10;99.90
23721;DHT22;42950;52.134;5.578;2023-05-07T02:15:15;15.10;99.90
23721;DHT22;42950;52.134;5.578;2023-05-07T02:18:05;15.10;99.90
23721;DHT22;42950;52.134;5.578;2023-05-07T02:20:37;15.20;99.90
23721;DHT22;42950;52.134;5.578;2023-05-07T02:23:03;15.20;99.90
23721;DHT22;42950;52.134;5.578;2023-05-07T02:25:28;15.10;99.90
23721;DHT22;42950;52.134;5.578;2023-05-07T02:27:55;15.10;99.90
23721;DHT22;42950;52.134;5.578;2023-05-07T02:30:20;15.10;99.90
23721;DHT22;42950;52.134;5.578;2023-05-07T02:32:50;15.10;99.90
23721;DHT22;42950;52.134;5.578;2023-05-07T02:35:16;15.10;99.90
23721;DHT22;42950;52.134;5.578;2023-05-07T02:37:42;15.20;99.90
23721;DHT22;42950;52.134;5.578;2023-05-07T02:40:08;15.10;99.90
23721;DHT22;42950;52.134;5.578;2023-05-07T02:42:34;15.10;99.90
23721;DHT22;42950;52.134;5.578;2023-05-07T02:45:00;15.20;99.90
23721;DHT22;42950;52.134;5.578;2023-05-07T02:47:27;15.10;99.90
23721;DHT22;42950;52.134;5.578;2023-05-07T02:49:54;15.10;99.90
23721;DHT22;42950;52.134;5.578;2023-05-07T02:52:21;15.10;99.90
23721;DHT22;42950;52.134;5.578;2023-05-07T02:54:46;15.10;99.90
23721;DHT22;42950;52.134;5.578;2023-05-07T02:57:12;15.10;99.90
23721;DHT22;42950;52.134;5.578;2023-05-07T02:59:38;15.10;99.90
23721;DHT22;42950;52.134;5.578;2023-05-07T03:02:03;15.10;99.90
23721;DHT22;42950;52.134;5.578;2023-05-07T03:04:29;15.10;99.90
23721;DHT22;42950;52.134;5.578;2023-05-07T03:06:55;15.10;99.90
23721;DHT22;42950;52.134;5.578;2023-05-07T03:09:21;15.10;99.90
23721;DHT22;42950;52.134;5.578;2023-05-07T03:11:48;15.10;99.90
23721;DHT22;42950;52.134;5.578;2023-05-07T03:14:14;15.10;99.90
23721;DHT22;42950;52.134;5.578;2023-05-07T03:16:40;15.10;99.90
23721;DHT22;42950;52.134;5.578;2023-05-07T03:19:06;15.10;99.90
23721;DHT22;42950;52.134;5.578;2023-05-07T03:21:31;15.10;99.90
23721;DHT22;42950;52.134;5.578;2023-05-07T03:23:59;15.10;99.90
23721;DHT22;42950;52.134;5.578;2023-05-07T03:26:26;15.10;99.90
23721;DHT22;42950;52.134;5.578;2023-05-07T03:28:52;15.10;99.90
23721;DHT22;42950;52.134;5.578;2023-05-07T03:31:18;15.10;99.90
23721;DHT22;42950;52.134;5.578;2023-05-07T03:33:55;15.10;99.90
23721;DHT22;42950;52.134;5.578;2023-05-07T03:36:22;15.10;99.90
23721;DHT22;42950;52.134;5.578;2023-05-07T03:38:49;15.00;99.90
23721;DHT22;42950;52.134;5.578;2023-05-07T03:41:15;15.00;99.90
23721;DHT22;42950;52.134;5.578;2023-05-07T03:43:41;15.00;99.90
23721;DHT22;42950;52.134;5.578;2023-05-07T03:46:06;15.00;99.90
23721;DHT22;42950;52.134;5.578;2023-05-07T03:48:32;15.00;99.90
23721;DHT22;42950;52.134;5.578;2023-05-07T03:50:59;15.00;99.90
23721;DHT22;42950;52.134;5.578;2023-05-07T03:53:25;15.00;99.90
23721;DHT22;42950;52.134;5.578;2023-05-07T03:55:50;15.00;99.90
23721;DHT22;42950;52.134;5.578;2023-05-07T03:58:16;15.00;99.90
23721;DHT22;42950;52.134;5.578;2023-05-07T04:00:42;15.00;99.90
23721;DHT22;42950;52.134;5.578;2023-05-07T04:03:08;15.00;99.90
23721;DHT22;42950;52.134;5.578;2023-05-07T04:05:34;15.00;99.90
23721;DHT22;42950;52.134;5.578;2023-05-07T04:08:00;15.00;99.90
23721;DHT22;42950;52.134;5.578;2023-05-07T04:10:26;15.00;99.90
23721;DHT22;42950;52.134;5.578;2023-05-07T04:12:54;14.90;99.90
23721;DHT22;42950;52.134;5.578;2023-05-07T04:15:20;14.90;99.90
23721;DHT22;42950;52.134;5.578;2023-05-07T04:17:46;15.00;99.90
23721;DHT22;42950;52.134;5.578;2023-05-07T04:20:15;14.90;99.90
23721;DHT22;42950;52.134;5.578;2023-05-07T04:22:41;14.90;99.90
23721;DHT22;42950;52.134;5.578;2023-05-07T04:25:07;14.90;99.90
23721;DHT22;42950;52.134;5.578;2023-05-07T04:27:34;14.90;99.90
23721;DHT22;42950;52.134;5.578;2023-05-07T04:30:02;14.90;99.90
23721;DHT22;42950;52.134;5.578;2023-05-07T04:32:29;15.00;99.90
23721;DHT22;42950;52.134;5.578;2023-05-07T04:34:56;14.90;99.90
23721;DHT22;42950;52.134;5.578;2023-05-07T04:37:22;14.90;99.90
23721;DHT22;42950;52.134;5.578;2023-05-07T04:39:47;14.90;99.90
23721;DHT22;42950;52.134;5.578;2023-05-07T04:42:17;14.90;99.90
23721;DHT22;42950;52.134;5.578;2023-05-07T04:44:44;14.90;99.90
23721;DHT22;42950;52.134;5.578;2023-05-07T04:47:10;14.90;99.90
23721;DHT22;42950;52.134;5.578;2023-05-07T04:49:36;14.80;99.90
23721;DHT22;42950;52.134;5.578;2023-05-07T04:52:02;14.80;99.90
23721;DHT22;42950;52.134;5.578;2023-05-07T04:54:29;14.80;99.90
23721;DHT22;42950;52.134;5.578;2023-05-07T04:56:55;14.80;99.90
23721;DHT22;42950;52.134;5.578;2023-05-07T04:59:30;14.80;99.90
23721;DHT22;42950;52.134;5.578;2023-05-07T05:01:56;14.80;99.90
23721;DHT22;42950;52.134;5.578;2023-05-07T05:04:21;14.80;99.90
23721;DHT22;42950;52.134;5.578;2023-05-07T05:06:47;14.90;99.90
23721;DHT22;42950;52.134;5.578;2023-05-07T05:09:12;14.80;99.90
23721;DHT22;42950;52.134;5.578;2023-05-07T05:11:40;14.80;99.90
23721;DHT22;42950;52.134;5.578;2023-05-07T05:14:06;14.90;99.90
23721;DHT22;42950;52.134;5.578;2023-05-07T05:16:32;15.00;99.90
23721;DHT22;42950;52.134;5.578;2023-05-07T05:18:58;14.90;99.90
23721;DHT22;42950;52.134;5.578;2023-05-07T05:21:24;15.00;99.90
23721;DHT22;42950;52.134;5.578;2023-05-07T05:23:50;14.90;99.90
23721;DHT22;42950;52.134;5.578;2023-05-07T05:26:17;14.90;99.90
23721;DHT22;42950;52.134;5.578;2023-05-07T05:28:43;15.00;99.90
23721;DHT22;42950;52.134;5.578;2023-05-07T05:31:10;15.00;99.90
23721;DHT22;42950;52.134;5.578;2023-05-07T05:33:36;14.90;99.90
23721;DHT22;42950;52.134;5.578;2023-05-07T05:36:01;15.00;99.90
23721;DHT22;42950;52.134;5.578;2023-05-07T05:38:27;15.10;99.90
23721;DHT22;42950;52.134;5.578;2023-05-07T05:40:53;15.10;99.90
23721;DHT22;42950;52.134;5.578;2023-05-07T05:43:18;15.10;99.90
23721;DHT22;42950;52.134;5.578;2023-05-07T05:45:45;15.20;99.90
23721;DHT22;42950;52.134;5.578;2023-05-07T05:48:11;15.10;99.90
23721;DHT22;42950;52.134;5.578;2023-05-07T05:50:38;15.10;99.90
23721;DHT22;42950;52.134;5.578;2023-05-07T05:53:05;15.20;99.90
23721;DHT22;42950;52.134;5.578;2023-05-07T05:55:32;15.20;99.90
23721;DHT22;42950;52.134;5.578;2023-05-07T05:58:01;15.20;99.90
23721;DHT22;42950;52.134;5.578;2023-05-07T06:00:27;15.20;99.90
23721;DHT22;42950;52.134;5.578;2023-05-07T06:02:54;15.20;99.90
23721;DHT22;42950;52.134;5.578;2023-05-07T06:05:19;15.30;99.90
23721;DHT22;42950;52.134;5.578;2023-05-07T06:07:46;15.30;99.90
23721;DHT22;42950;52.134;5.578;2023-05-07T06:10:12;15.30;99.90
23721;DHT22;42950;52.134;5.578;2023-05-07T06:12:37;15.30;99.90
23721;DHT22;42950;52.134;5.578;2023-05-07T06:15:04;15.40;99.90
23721;DHT22;42950;52.134;5.578;2023-05-07T06:17:30;15.40;99.90
23721;DHT22;42950;52.134;5.578;2023-05-07T06:19:56;15.50;99.90
23721;DHT22;42950;52.134;5.578;2023-05-07T06:22:22;15.50;99.90
23721;DHT22;42950;52.134;5.578;2023-05-07T06:24:48;15.50;99.90
23721;DHT22;42950;52.134;5.578;2023-05-07T06:27:14;15.50;99.90
23721;DHT22;42950;52.134;5.578;2023-05-07T06:29:41;15.50;99.90
23721;DHT22;42950;52.134;5.578;2023-05-07T06:32:13;15.60;99.90
23721;DHT22;42950;52.134;5.578;2023-05-07T06:34:39;15.70;99.90
23721;DHT22;42950;52.134;5.578;2023-05-07T06:37:06;15.70;99.90
23721;DHT22;42950;52.134;5.578;2023-05-07T06:39:32;15.80;99.90
23721;DHT22;42950;52.134;5.578;2023-05-07T06:41:59;15.80;99.90
23721;DHT22;42950;52.134;5.578;2023-05-07T06:44:25;15.80;99.90
23721;DHT22;42950;52.134;5.578;2023-05-07T06:46:50;15.90;99.90
23721;DHT22;42950;52.134;5.578;2023-05-07T06:49:16;15.90;99.90
23721;DHT22;42950;52.134;5.578;2023-05-07T06:51:41;16.00;99.90
23721;DHT22;42950;52.134;5.578;2023-05-07T06:54:07;16.00;99.90
23721;DHT22;42950;52.134;5.578;2023-05-07T06:56:33;16.10;99.90
23721;DHT22;42950;52.134;5.578;2023-05-07T06:59:01;16.10;99.90
23721;DHT22;42950;52.134;5.578;2023-05-07T07:01:28;16.20;99.90
23721;DHT22;42950;52.134;5.578;2023-05-07T07:03:54;16.10;99.90
23721;DHT22;42950;52.134;5.578;2023-05-07T07:06:20;16.20;99.90
23721;DHT22;42950;52.134;5.578;2023-05-07T07:08:49;16.20;99.90
23721;DHT22;42950;52.134;5.578;2023-05-07T07:11:15;16.10;99.90
23721;DHT22;42950;52.134;5.578;2023-05-07T07:13:41;16.10;99.90
23721;DHT22;42950;52.134;5.578;2023-05-07T07:16:06;16.10;99.90
23721;DHT22;42950;52.134;5.578;2023-05-07T07:18:32;16.10;99.90
23721;DHT22;42950;52.134;5.578;2023-05-07T07:20:59;16.10;99.90
23721;DHT22;42950;52.134;5.578;2023-05-07T07:23:25;16.10;99.90
23721;DHT22;42950;52.134;5.578;2023-05-07T07:25:51;16.10;99.90
23721;DHT22;42950;52.134;5.578;2023-05-07T07:28:17;16.20;99.90
23721;DHT22;42950;52.134;5.578;2023-05-07T07:30:43;16.30;99.90
23721;DHT22;42950;52.134;5.578;2023-05-07T07:33:08;16.30;99.90
23721;DHT22;42950;52.134;5.578;2023-05-07T07:35:34;16.40;99.90
23721;DHT22;42950;52.134;5.578;2023-05-07T07:38:00;16.40;99.90
23721;DHT22;42950;52.134;5.578;2023-05-07T07:40:26;16.50;99.90
23721;DHT22;42950;52.134;5.578;2023-05-07T07:42:53;16.50;99.90
23721;DHT22;42950;52.134;5.578;2023-05-07T07:45:18;16.50;99.90
23721;DHT22;42950;52.134;5.578;2023-05-07T07:47:44;16.70;99.90
23721;DHT22;42950;52.134;5.578;2023-05-07T07:50:10;16.80;99.90
23721;DHT22;42950;52.134;5.578;2023-05-07T07:52:36;16.80;99.90
23721;DHT22;42950;52.134;5.578;2023-05-07T07:55:03;16.90;99.90
23721;DHT22;42950;52.134;5.578;2023-05-07T07:57:28;16.90;99.90
23721;DHT22;42950;52.134;5.578;2023-05-07T07:59:55;17.00;99.90
23721;DHT22;42950;52.134;5.578;2023-05-07T08:02:21;17.00;99.90
23721;DHT22;42950;52.134;5.578;2023-05-07T08:04:47;17.00;99.90
23721;DHT22;42950;52.134;5.578;2023-05-07T08:07:13;17.00;99.90
23721;DHT22;42950;52.134;5.578;2023-05-07T08:09:39;17.10;99.90
23721;DHT22;42950;52.134;5.578;2023-05-07T08:12:06;17.10;99.90
23721;DHT22;42950;52.134;5.578;2023-05-07T08:14:33;17.20;99.90
23721;DHT22;42950;52.134;5.578;2023-05-07T08:16:58;17.30;99.90
23721;DHT22;42950;52.134;5.578;2023-05-07T08:19:24;17.30;99.90
23721;DHT22;42950;52.134;5.578;2023-05-07T08:21:50;17.40;99.90
23721;DHT22;42950;52.134;5.578;2023-05-07T08:24:16;17.40;99.90
23721;DHT22;42950;52.134;5.578;2023-05-07T08:26:44;17.40;99.90
23721;DHT22;42950;52.134;5.578;2023-05-07T08:29:10;17.50;99.90
23721;DHT22;42950;52.134;5.578;2023-05-07T08:31:36;17.50;99.90
23721;DHT22;42950;52.134;5.578;2023-05-07T08:34:03;17.60;99.90
23721;DHT22;42950;52.134;5.578;2023-05-07T08:36:29;17.80;99.90
23721;DHT22;42950;52.134;5.578;2023-05-07T08:38:55;17.80;99.90
23721;DHT22;42950;52.134;5.578;2023-05-07T08:41:20;17.70;99.90
23721;DHT22;42950;52.134;5.578;2023-05-07T08:43:50;17.70;99.90
23721;DHT22;42950;52.134;5.578;2023-05-07T08:46:21;17.60;99.90
23721;DHT22;42950;52.134;5.578;2023-05-07T08:48:51;17.50;99.90
23721;DHT22;42950;52.134;5.578;2023-05-07T08:51:19;17.50;99.90
23721;DHT22;42950;52.134;5.578;2023-05-07T08:53:46;17.50;99.90
23721;DHT22;42950;52.134;5.578;2023-05-07T08:56:19;17.40;99.90
23721;DHT22;42950;52.134;5.578;2023-05-07T08:58:47;17.30;99.90
23721;DHT22;42950;52.134;5.578;2023-05-07T09:01:15;17.20;99.90
23721;DHT22;42950;52.134;5.578;2023-05-07T09:03:43;17.20;99.90
23721;DHT22;42950;52.134;5.578;2023-05-07T09:06:10;17.20;99.90
23721;DHT22;42950;52.134;5.578;2023-05-07T09:08:36;17.20;99.90
23721;DHT22;42950;52.134;5.578;2023-05-07T09:11:02;17.30;99.90
23721;DHT22;42950;52.134;5.578;2023-05-07T09:13:28;17.40;99.90
23721;DHT22;42950;52.134;5.578;2023-05-07T09:15:55;17.40;99.90
23721;DHT22;42950;52.134;5.578;2023-05-07T09:18:21;17.40;99.90
23721;DHT22;42950;52.134;5.578;2023-05-07T09:20:48;17.50;99.90
23721;DHT22;42950;52.134;5.578;2023-05-07T09:23:14;17.70;99.90
23721;DHT22;42950;52.134;5.578;2023-05-07T09:25:40;17.80;99.90
23721;DHT22;42950;52.134;5.578;2023-05-07T09:28:06;17.80;99.90
23721;DHT22;42950;52.134;5.578;2023-05-07T09:30:33;17.80;99.90
23721;DHT22;42950;52.134;5.578;2023-05-07T09:33:02;17.80;99.90
23721;DHT22;42950;52.134;5.578;2023-05-07T09:35:29;17.70;99.90
23721;DHT22;42950;52.134;5.578;2023-05-07T09:37:59;17.70;99.90
23721;DHT22;42950;52.134;5.578;2023-05-07T09:40:30;17.70;99.90
23721;DHT22;42950;52.134;5.578;2023-05-07T09:42:56;17.80;99.90
23721;DHT22;42950;52.134;5.578;2023-05-07T09:45:35;17.80;99.90
23721;DHT22;42950;52.134;5.578;2023-05-07T09:48:04;18.00;99.90
23721;DHT22;42950;52.134;5.578;2023-05-07T09:50:36;18.10;99.90
23721;DHT22;42950;52.134;5.578;2023-05-07T09:53:03;18.00;99.90
23721;DHT22;42950;52.134;5.578;2023-05-07T09:55:29;18.10;99.90
23721;DHT22;42950;52.134;5.578;2023-05-07T09:57:57;18.20;99.90
23721;DHT22;42950;52.134;5.578;2023-05-07T10:00:25;18.40;99.90
23721;DHT22;42950;52.134;5.578;2023-05-07T10:02:53;18.50;99.90
23721;DHT22;42950;52.134;5.578;2023-05-07T10:05:22;18.40;99.90
23721;DHT22;42950;52.134;5.578;2023-05-07T10:07:48;18.50;99.90
23721;DHT22;42950;52.134;5.578;2023-05-07T10:10:14;18.60;99.90
23721;DHT22;42950;52.134;5.578;2023-05-07T10:12:41;18.70;99.90
23721;DHT22;42950;52.134;5.578;2023-05-07T10:15:11;18.70;99.90
23721;DHT22;42950;52.134;5.578;2023-05-07T10:17:38;18.80;99.90
23721;DHT22;42950;52.134;5.578;2023-05-07T10:20:05;18.80;99.90
23721;DHT22;42950;52.134;5.578;2023-05-07T10:22:43;18.90;99.90
23721;DHT22;42950;52.134;5.578;2023-05-07T10:25:18;18.90;99.90
23721;DHT22;42950;52.134;5.578;2023-05-07T10:27:47;18.90;99.90
23721;DHT22;42950;52.134;5.578;2023-05-07T10:33:13;18.80;99.90
23721;DHT22;42950;52.134;5.578;2023-05-07T10:35:45;18.90;99.90
23721;DHT22;42950;52.134;5.578;2023-05-07T10:38:12;19.00;99.90
23721;DHT22;42950;52.134;5.578;2023-05-07T10:40:38;19.20;99.90
23721;DHT22;42950;52.134;5.578;2023-05-07T10:43:05;19.20;99.90
23721;DHT22;42950;52.134;5.578;2023-05-07T10:45:32;19.30;99.90
23721;DHT22;42950;52.134;5.578;2023-05-07T10:48:15;19.40;99.90
23721;DHT22;42950;52.134;5.578;2023-05-07T10:50:42;19.40;99.90
23721;DHT22;42950;52.134;5.578;2023-05-07T10:55:48;19.80;99.90
23721;DHT22;42950;52.134;5.578;2023-05-07T10:58:28;19.90;99.90
23721;DHT22;42950;52.134;5.578;2023-05-07T11:03:25;20.30;99.90
23721;DHT22;42950;52.134;5.578;2023-05-07T11:06:13;20.50;99.90
23721;DHT22;42950;52.134;5.578;2023-05-07T11:08:54;20.80;99.90
23721;DHT22;42950;52.134;5.578;2023-05-07T11:11:47;21.00;99.90
23721;DHT22;42950;52.134;5.578;2023-05-07T11:17:08;21.10;99.90
23721;DHT22;42950;52.134;5.578;2023-05-07T11:19:53;21.00;99.90
23721;DHT22;42950;52.134;5.578;2023-05-07T11:25:02;21.20;99.90
23721;DHT22;42950;52.134;5.578;2023-05-07T11:27:29;21.20;99.90
23721;DHT22;42950;52.134;5.578;2023-05-07T11:29:56;21.30;99.90
23721;DHT22;42950;52.134;5.578;2023-05-07T11:32:23;21.50;99.90
23721;DHT22;42950;52.134;5.578;2023-05-07T11:34:56;21.50;99.90
23721;DHT22;42950;52.134;5.578;2023-05-07T11:37:23;21.50;99.90
23721;DHT22;42950;52.134;5.578;2023-05-07T11:39:50;21.40;99.90
23721;DHT22;42950;52.134;5.578;2023-05-07T11:42:35;21.50;99.90
23721;DHT22;42950;52.134;5.578;2023-05-07T11:45:03;21.50;99.90
23721;DHT22;42950;52.134;5.578;2023-05-07T11:47:32;21.60;99.90
23721;DHT22;42950;52.134;5.578;2023-05-07T11:50:03;21.70;99.90
23721;DHT22;42950;52.134;5.578;2023-05-07T11:52:29;21.60;99.90
23721;DHT22;42950;52.134;5.578;2023-05-07T11:54:56;21.40;99.90
23721;DHT22;42950;52.134;5.578;2023-05-07T11:57:26;21.10;99.90
23721;DHT22;42950;52.134;5.578;2023-05-07T11:59:57;20.90;99.90
23721;DHT22;42950;52.134;5.578;2023-05-07T12:02:24;21.00;99.90
23721;DHT22;42950;52.134;5.578;2023-05-07T12:04:51;21.10;99.90
23721;DHT22;42950;52.134;5.578;2023-05-07T12:07:17;21.20;99.90
23721;DHT22;42950;52.134;5.578;2023-05-07T12:09:46;21.30;99.90
23721;DHT22;42950;52.134;5.578;2023-05-07T12:12:16;20.80;99.90
23721;DHT22;42950;52.134;5.578;2023-05-07T12:14:44;20.80;99.90
23721;DHT22;42950;52.134;5.578;2023-05-07T12:17:11;20.90;99.90
23721;DHT22;42950;52.134;5.578;2023-05-07T12:19:38;21.00;99.90
23721;DHT22;42950;52.134;5.578;2023-05-07T12:22:05;21.00;99.90
23721;DHT22;42950;52.134;5.578;2023-05-07T12:24:58;20.70;99.90
23721;DHT22;42950;52.134;5.578;2023-05-07T12:27:25;20.90;99.90
23721;DHT22;42950;52.134;5.578;2023-05-07T12:29:51;21.10;99.90
23721;DHT22;42950;52.134;5.578;2023-05-07T12:32:18;21.30;99.90
23721;DHT22;42950;52.134;5.578;2023-05-07T12:34:45;21.30;99.90
23721;DHT22;42950;52.134;5.578;2023-05-07T12:37:11;21.30;99.90
23721;DHT22;42950;52.134;5.578;2023-05-07T12:39:38;21.40;99.90
23721;DHT22;42950;52.134;5.578;2023-05-07T12:42:04;21.60;99.90
23721;DHT22;42950;52.134;5.578;2023-05-07T12:44:32;21.80;99.90
23721;DHT22;42950;52.134;5.578;2023-05-07T12:47:01;21.80;99.90
23721;DHT22;42950;52.134;5.578;2023-05-07T12:49:27;22.00;99.90
23721;DHT22;42950;52.134;5.578;2023-05-07T12:51:54;22.10;99.90
23721;DHT22;42950;52.134;5.578;2023-05-07T12:54:38;22.00;99.90
23721;DHT22;42950;52.134;5.578;2023-05-07T12:57:08;22.10;99.90
23721;DHT22;42950;52.134;5.578;2023-05-07T12:59:41;22.30;99.90
23721;DHT22;42950;52.134;5.578;2023-05-07T13:02:08;22.40;99.90
23721;DHT22;42950;52.134;5.578;2023-05-07T13:04:34;22.50;99.90
23721;DHT22;42950;52.134;5.578;2023-05-07T13:07:01;22.60;99.90
23721;DHT22;42950;52.134;5.578;2023-05-07T13:09:27;22.60;99.90
23721;DHT22;42950;52.134;5.578;2023-05-07T13:11:55;22.40;99.90
23721;DHT22;42950;52.134;5.578;2023-05-07T13:14:20;22.50;99.90
23721;DHT22;42950;52.134;5.578;2023-05-07T13:16:47;22.50;99.90
23721;DHT22;42950;52.134;5.578;2023-05-07T13:19:13;22.60;99.90
23721;DHT22;42950;52.134;5.578;2023-05-07T13:21:39;22.60;99.90
23721;DHT22;42950;52.134;5.578;2023-05-07T13:24:05;22.30;99.90
23721;DHT22;42950;52.134;5.578;2023-05-07T13:26:31;22.10;99.90
23721;DHT22;42950;52.134;5.578;2023-05-07T13:28:57;22.00;99.90
23721;DHT22;42950;52.134;5.578;2023-05-07T13:31:24;21.90;99.90
23721;DHT22;42950;52.134;5.578;2023-05-07T13:33:50;21.90;99.90
23721;DHT22;42950;52.134;5.578;2023-05-07T13:36:17;21.70;99.90
23721;DHT22;42950;52.134;5.578;2023-05-07T13:38:42;21.70;99.90
23721;DHT22;42950;52.134;5.578;2023-05-07T13:41:08;21.80;99.90
23721;DHT22;42950;52.134;5.578;2023-05-07T13:43:34;21.90;99.90
23721;DHT22;42950;52.134;5.578;2023-05-07T13:46:00;22.00;99.90
23721;DHT22;42950;52.134;5.578;2023-05-07T13:48:26;22.10;99.90
23721;DHT22;42950;52.134;5.578;2023-05-07T13:50:51;22.10;99.90
23721;DHT22;42950;52.134;5.578;2023-05-07T13:53:18;22.20;99.90
23721;DHT22;42950;52.134;5.578;2023-05-07T13:55:44;22.10;99.90
23721;DHT22;42950;52.134;5.578;2023-05-07T13:58:10;22.10;99.90
23721;DHT22;42950;52.134;5.578;2023-05-07T14:00:36;22.20;99.90
23721;DHT22;42950;52.134;5.578;2023-05-07T14:03:02;22.10;99.90
23721;DHT22;42950;52.134;5.578;2023-05-07T14:05:29;22.00;99.90
23721;DHT22;42950;52.134;5.578;2023-05-07T14:07:56;22.00;99.90
23721;DHT22;42950;52.134;5.578;2023-05-07T14:10:22;21.90;99.90
23721;DHT22;42950;52.134;5.578;2023-05-07T14:12:48;21.90;99.90
23721;DHT22;42950;52.134;5.578;2023-05-07T14:15:15;22.00;99.90
23721;DHT22;42950;52.134;5.578;2023-05-07T14:17:42;22.00;99.90
23721;DHT22;42950;52.134;5.578;2023-05-07T14:20:10;22.00;99.90
23721;DHT22;42950;52.134;5.578;2023-05-07T14:22:36;22.10;99.90
23721;DHT22;42950;52.134;5.578;2023-05-07T14:25:02;22.00;99.90
23721;DHT22;42950;52.134;5.578;2023-05-07T14:27:28;22.00;99.90
23721;DHT22;42950;52.134;5.578;2023-05-07T14:29:55;21.70;99.90
23721;DHT22;42950;52.134;5.578;2023-05-07T14:32:21;21.60;99.90
23721;DHT22;42950;52.134;5.578;2023-05-07T14:34:47;21.50;99.90
23721;DHT22;42950;52.134;5.578;2023-05-07T14:37:13;21.60;99.90
23721;DHT22;42950;52.134;5.578;2023-05-07T14:39:39;21.60;99.90
23721;DHT22;42950;52.134;5.578;2023-05-07T14:42:07;21.60;99.90
23721;DHT22;42950;52.134;5.578;2023-05-07T14:44:35;21.50;99.90
23721;DHT22;42950;52.134;5.578;2023-05-07T14:47:00;21.50;99.90
23721;DHT22;42950;52.134;5.578;2023-05-07T14:49:26;21.50;99.90
23721;DHT22;42950;52.134;5.578;2023-05-07T14:51:53;21.50;99.90
23721;DHT22;42950;52.134;5.578;2023-05-07T14:54:19;21.50;99.90
23721;DHT22;42950;52.134;5.578;2023-05-07T14:56:45;21.40;99.90
23721;DHT22;42950;52.134;5.578;2023-05-07T14:59:10;21.20;99.90
23721;DHT22;42950;52.134;5.578;2023-05-07T15:01:37;21.10;99.90
23721;DHT22;42950;52.134;5.578;2023-05-07T15:04:03;21.00;99.90
23721;DHT22;42950;52.134;5.578;2023-05-07T15:06:29;20.90;99.90
23721;DHT22;42950;52.134;5.578;2023-05-07T15:08:55;20.80;99.90
23721;DHT22;42950;52.134;5.578;2023-05-07T15:11:21;20.70;99.90
23721;DHT22;42950;52.134;5.578;2023-05-07T15:13:46;20.80;99.90
23721;DHT22;42950;52.134;5.578;2023-05-07T15:16:12;20.90;99.90
23721;DHT22;42950;52.134;5.578;2023-05-07T15:18:38;20.80;99.90
23721;DHT22;42950;52.134;5.578;2023-05-07T15:21:03;20.60;99.90
23721;DHT22;42950;52.134;5.578;2023-05-07T15:23:29;20.40;99.90
23721;DHT22;42950;52.134;5.578;2023-05-07T15:25:57;20.40;99.90
23721;DHT22;42950;52.134;5.578;2023-05-07T15:28:24;20.30;99.90
23721;DHT22;42950;52.134;5.578;2023-05-07T15:30:50;20.10;99.90
23721;DHT22;42950;52.134;5.578;2023-05-07T15:33:16;20.00;99.90
23721;DHT22;42950;52.134;5.578;2023-05-07T15:35:42;19.90;99.90
23721;DHT22;42950;52.134;5.578;2023-05-07T15:38:08;20.00;99.90
23721;DHT22;42950;52.134;5.578;2023-05-07T15:40:34;20.10;99.90
23721;DHT22;42950;52.134;5.578;2023-05-07T15:43:03;20.10;99.90